createdAt,value
2023-04-29T00:00:04.876Z,499.0769
2023-04-29T00:01:06.496Z,496.0769
2023-04-29T00:02:08.161Z,492.6154
2023-04-29T00:03:10.260Z,491.0000
2023-04-29T00:04:11.780Z,491.8462
2023-04-29T00:05:13.320Z,493.9231
2023-04-29T00:06:14.945Z,496.3077
2023-04-29T00:07:16.358Z,492.5385
2023-04-29T00:08:18.033Z,497.4615
2023-04-29T00:09:19.647Z,497.0769
2023-04-29T00:10:21.277Z,495.7692
2023-04-29T00:11:22.958Z,494.8462
2023-04-29T00:12:24.615Z,493.2308
2023-04-29T00:13:26.297Z,493.3077
2023-04-29T00:14:27.891Z,492.1538
2023-04-29T00:15:29.583Z,492.6923
2023-04-29T00:16:31.223Z,490.9231
2023-04-29T00:17:32.912Z,493.0000
2023-04-29T00:18:34.472Z,498.7692
2023-04-29T00:19:36.114Z,498.8462
2023-04-29T00:20:37.829Z,498.0000
2023-04-29T00:21:39.376Z,500.3077
2023-04-29T00:22:41.055Z,497.7692
2023-04-29T00:23:42.753Z,490.1538
2023-04-29T00:24:44.628Z,489.9231
2023-04-29T00:25:45.953Z,491.6154
2023-04-29T00:26:47.605Z,491.4615
2023-04-29T00:27:49.279Z,491.1538
2023-04-29T00:28:52.542Z,490.8462
2023-04-29T00:29:52.929Z,494.1538
2023-04-29T00:30:54.188Z,495.3077
2023-04-29T00:31:55.856Z,495.6154
2023-04-29T00:32:57.547Z,497.0000
2023-04-29T00:33:59.127Z,495.1538
2023-04-29T00:35:00.841Z,494.3077
2023-04-29T00:36:02.388Z,494.6923
2023-04-29T00:37:04.096Z,497.5385
2023-04-29T00:38:05.695Z,499.7692
2023-04-29T00:39:07.630Z,499.7692
2023-04-29T00:40:08.988Z,498.9231
2023-04-29T00:41:10.664Z,496.0769
2023-04-29T00:42:12.234Z,492.9231
2023-04-29T00:43:13.923Z,493.0769
2023-04-29T00:44:15.564Z,492.1538
2023-04-29T00:45:17.240Z,495.1538
2023-04-29T00:46:18.878Z,494.5385
2023-04-29T00:47:20.465Z,491.3846
2023-04-29T00:48:22.046Z,495.3077
2023-04-29T00:49:23.717Z,496.0000
2023-04-29T00:50:26.047Z,497.8462
2023-04-29T00:51:26.938Z,500.0769
2023-04-29T00:52:28.555Z,499.0769
2023-04-29T00:53:30.277Z,494.6923
2023-04-29T00:54:31.852Z,491.8462
2023-04-29T00:55:33.579Z,490.3846
2023-04-29T00:56:35.155Z,490.3077
2023-04-29T00:57:36.814Z,489.8462
2023-04-29T00:58:38.454Z,492.1538
2023-04-29T00:59:40.108Z,495.6154
2023-04-29T01:00:41.794Z,497.4615
2023-04-29T01:01:43.404Z,493.8462
2023-04-29T01:02:45.120Z,490.6923
2023-04-29T01:03:46.853Z,493.6923
2023-04-29T01:04:48.307Z,493.6923
2023-04-29T01:05:49.993Z,492.7692
2023-04-29T01:06:51.607Z,491.8462
2023-04-29T01:07:53.269Z,490.3846
2023-04-29T01:08:54.833Z,491.5385
2023-04-29T01:09:56.507Z,491.9231
2023-04-29T01:10:58.145Z,490.0000
2023-04-29T01:12:00.568Z,487.5385
2023-04-29T01:13:01.462Z,490.1538
2023-04-29T01:14:03.094Z,491.8462
2023-04-29T01:15:04.707Z,493.4615
2023-04-29T01:16:06.562Z,493.3846
2023-04-29T01:17:08.021Z,492.0769
2023-04-29T01:18:09.745Z,490.0000
2023-04-29T01:19:11.424Z,489.2308
2023-04-29T01:20:13.138Z,489.5385
2023-04-29T01:21:14.699Z,490.8462
2023-04-29T01:22:16.454Z,491.5385
2023-04-29T01:23:18.052Z,490.5385
2023-04-29T01:24:21.583Z,489.6154
2023-04-29T01:25:21.230Z,494.7692
2023-04-29T01:26:22.954Z,494.7692
2023-04-29T01:27:24.559Z,496.6154
2023-04-29T01:28:26.258Z,496.4615
2023-04-29T01:29:27.774Z,496.2308
2023-04-29T01:30:29.472Z,494.9231
2023-04-29T01:31:31.140Z,495.6154
2023-04-29T01:32:34.636Z,498.4615
2023-04-29T01:33:34.389Z,497.3077
2023-04-29T01:34:36.028Z,496.3077
2023-04-29T01:35:37.659Z,495.5385
2023-04-29T01:36:39.344Z,493.4615
2023-04-29T01:37:41.052Z,493.5385
2023-04-29T01:38:43.178Z,494.4615
2023-04-29T01:39:44.231Z,494.6154
2023-04-29T01:40:45.914Z,494.7692
2023-04-29T01:41:47.514Z,494.2308
2023-04-29T01:42:49.668Z,493.4615
2023-04-29T01:43:50.863Z,493.3077
2023-04-29T01:44:52.492Z,496.6923
2023-04-29T01:45:54.100Z,496.6923
2023-04-29T01:46:55.807Z,496.4615
2023-04-29T01:47:57.508Z,498.2308
2023-04-29T01:48:59.135Z,497.0769
2023-04-29T01:50:00.668Z,497.3077
2023-04-29T01:51:02.338Z,497.3077
2023-04-29T01:52:03.953Z,498.0769
2023-04-29T01:53:05.659Z,499.0000
2023-04-29T01:54:07.259Z,501.6923
2023-04-29T01:55:08.923Z,502.0000
2023-04-29T01:56:10.554Z,503.8462
2023-04-29T01:57:12.171Z,502.6154
2023-04-29T01:58:13.839Z,501.6923
2023-04-29T01:59:15.526Z,503.3077
2023-04-29T02:00:17.107Z,500.4615
2023-04-29T02:01:18.836Z,502.6154
2023-04-29T02:02:20.500Z,501.3077
2023-04-29T02:03:22.198Z,501.6154
2023-04-29T02:04:23.790Z,501.7692
2023-04-29T02:05:25.335Z,502.0000
2023-04-29T02:06:27.033Z,503.3846
2023-04-29T02:07:28.631Z,504.3846
2023-04-29T02:08:30.366Z,503.6923
2023-04-29T02:09:31.937Z,505.3077
2023-04-29T02:10:33.594Z,506.5385
2023-04-29T02:11:35.175Z,505.0769
2023-04-29T02:12:36.903Z,504.0000
2023-04-29T02:13:38.540Z,507.0000
2023-04-29T02:14:40.212Z,509.9231
2023-04-29T02:15:41.864Z,507.8462
2023-04-29T02:16:43.591Z,507.7692
2023-04-29T02:17:45.085Z,507.8462
2023-04-29T02:18:46.766Z,507.8462
2023-04-29T02:19:48.650Z,509.6923
2023-04-29T02:20:50.060Z,507.7692
2023-04-29T02:21:51.653Z,508.0769
2023-04-29T02:22:53.357Z,511.8462
2023-04-29T02:23:55.018Z,512.1539
2023-04-29T02:24:56.674Z,513.0000
2023-04-29T02:25:58.240Z,510.5385
2023-04-29T02:26:59.916Z,508.4615
2023-04-29T02:28:01.520Z,509.0000
2023-04-29T02:29:03.225Z,506.1538
2023-04-29T02:30:04.906Z,507.3077
2023-04-29T02:31:06.504Z,509.6923
2023-04-29T02:32:08.151Z,509.6923
2023-04-29T02:33:09.912Z,508.3077
2023-04-29T02:34:11.465Z,506.0000
2023-04-29T02:35:13.096Z,504.9231
2023-04-29T02:36:14.679Z,509.0000
2023-04-29T02:37:16.376Z,508.2308
2023-04-29T02:38:17.971Z,509.9231
2023-04-29T02:39:20.672Z,505.7692
2023-04-29T02:40:21.314Z,507.3077
2023-04-29T02:41:22.938Z,506.3846
2023-04-29T02:42:24.546Z,505.5385
2023-04-29T02:43:26.204Z,509.9231
2023-04-29T02:44:27.927Z,510.5385
2023-04-29T02:45:29.657Z,510.8462
2023-04-29T02:46:31.109Z,508.7692
2023-04-29T02:47:32.816Z,505.6923
2023-04-29T02:48:34.397Z,508.6154
2023-04-29T02:49:36.238Z,511.0769
2023-04-29T02:50:38.194Z,510.0000
2023-04-29T02:51:39.391Z,509.1538
2023-04-29T02:52:41.007Z,505.6923
2023-04-29T02:53:42.664Z,508.6923
2023-04-29T02:54:44.295Z,510.1538
2023-04-29T02:55:46.181Z,508.4615
2023-04-29T02:56:47.564Z,506.8462
2023-04-29T02:57:49.235Z,506.9231
2023-04-29T02:58:50.876Z,506.9231
2023-04-29T02:59:52.843Z,505.8462
2023-04-29T03:00:54.225Z,506.2308
2023-04-29T03:01:55.813Z,506.5385
2023-04-29T03:02:57.741Z,506.9231
2023-04-29T03:03:59.281Z,505.1538
2023-04-29T03:05:00.743Z,503.0000
2023-04-29T03:06:02.473Z,505.2308
2023-04-29T03:07:04.068Z,506.7692
2023-04-29T03:08:05.675Z,503.4615
2023-04-29T03:09:07.314Z,508.5385
2023-04-29T03:10:09.007Z,507.0000
2023-04-29T03:11:10.620Z,504.9231
2023-04-29T03:12:12.256Z,503.6923
2023-04-29T03:13:13.893Z,504.8462
2023-04-29T03:14:15.523Z,506.2308
2023-04-29T03:15:17.201Z,507.5385
2023-04-29T03:16:18.930Z,507.9231
2023-04-29T03:17:20.443Z,506.9231
2023-04-29T03:18:22.155Z,506.0000
2023-04-29T03:19:23.765Z,505.6923
2023-04-29T03:20:25.489Z,506.8462
2023-04-29T03:21:27.081Z,507.6923
2023-04-29T03:22:28.748Z,507.6154
2023-04-29T03:23:30.314Z,504.6923
2023-04-29T03:24:32.623Z,505.6154
2023-04-29T03:25:33.681Z,507.2308
2023-04-29T03:26:35.327Z,506.0000
2023-04-29T03:27:36.974Z,507.6154
2023-04-29T03:28:38.566Z,507.4615
2023-04-29T03:29:40.206Z,507.5385
2023-04-29T03:30:41.906Z,507.0000
2023-04-29T03:31:43.641Z,505.6923
2023-04-29T03:32:45.179Z,506.7692
2023-04-29T03:33:46.778Z,508.7692
2023-04-29T03:34:48.494Z,504.6923
2023-04-29T03:35:50.127Z,503.7692
2023-04-29T03:36:51.795Z,503.6923
2023-04-29T03:37:53.456Z,504.3846
2023-04-29T03:38:55.058Z,507.0000
2023-04-29T03:39:56.627Z,506.3846
2023-04-29T03:40:58.724Z,506.8462
2023-04-29T03:42:00.040Z,505.8462
2023-04-29T03:43:01.641Z,506.4615
2023-04-29T03:44:03.267Z,506.8462
2023-04-29T03:45:04.903Z,508.0000
2023-04-29T03:46:06.547Z,508.3077
2023-04-29T03:47:08.727Z,508.3077
2023-04-29T03:48:09.801Z,506.7692
2023-04-29T03:49:11.554Z,507.9231
2023-04-29T03:50:13.076Z,508.4615
2023-04-29T03:51:14.834Z,509.7692
2023-04-29T03:52:16.395Z,509.7692
2023-04-29T03:53:18.029Z,510.9231
2023-04-29T03:54:19.641Z,509.0000
2023-04-29T03:55:21.321Z,506.7692
2023-04-29T03:56:23.008Z,509.6154
2023-04-29T03:57:24.657Z,510.2308
2023-04-29T03:58:26.250Z,508.8462
2023-04-29T03:59:27.930Z,507.9231
2023-04-29T04:00:29.514Z,507.6923
2023-04-29T04:01:31.254Z,506.0000
2023-04-29T04:02:32.923Z,507.1538
2023-04-29T04:03:34.569Z,510.1538
2023-04-29T04:04:36.284Z,508.6154
2023-04-29T04:05:37.746Z,506.8462
2023-04-29T04:06:39.438Z,508.5385
2023-04-29T04:07:41.128Z,507.8462
2023-04-29T04:08:42.654Z,505.3077
2023-04-29T04:09:44.386Z,505.5385
2023-04-29T04:10:45.968Z,505.3077
2023-04-29T04:11:47.716Z,504.5385
2023-04-29T04:12:49.301Z,498.6154
2023-04-29T04:13:50.909Z,497.7692
2023-04-29T04:14:52.647Z,500.0000
2023-04-29T04:15:54.295Z,500.6154
2023-04-29T04:16:55.979Z,500.7692
2023-04-29T04:17:57.583Z,495.6154
2023-04-29T04:18:59.217Z,497.6923
2023-04-29T04:20:00.845Z,496.2308
2023-04-29T04:21:02.541Z,496.6154
2023-04-29T04:22:04.158Z,497.3077
2023-04-29T04:23:05.818Z,493.1538
2023-04-29T04:24:07.382Z,491.2308
2023-04-29T04:25:09.201Z,494.3846
2023-04-29T04:26:10.674Z,494.6923
2023-04-29T04:27:12.428Z,493.7692
2023-04-29T04:28:14.003Z,490.9231
2023-04-29T04:29:15.641Z,494.0769
2023-04-29T04:30:17.283Z,492.5385
2023-04-29T04:31:19.035Z,489.6154
2023-04-29T04:32:20.636Z,488.0000
2023-04-29T04:33:23.217Z,484.6923
2023-04-29T04:34:24.682Z,487.4615
2023-04-29T04:35:25.523Z,489.1538
2023-04-29T04:36:27.137Z,491.4615
2023-04-29T04:37:28.855Z,490.3846
2023-04-29T04:38:30.456Z,488.5385
2023-04-29T04:39:32.707Z,489.7692
2023-04-29T04:40:33.730Z,489.8462
2023-04-29T04:41:35.465Z,491.2308
2023-04-29T04:42:37.059Z,487.6923
2023-04-29T04:43:38.709Z,485.0769
2023-04-29T04:44:40.317Z,486.4615
2023-04-29T04:45:42.061Z,484.7692
2023-04-29T04:46:43.612Z,485.0769
2023-04-29T04:47:45.327Z,484.7692
2023-04-29T04:48:46.894Z,487.2308
2023-04-29T04:49:48.577Z,486.3846
2023-04-29T04:50:50.194Z,485.1538
2023-04-29T04:51:51.869Z,486.2308
2023-04-29T04:52:53.506Z,486.1538
2023-04-29T04:53:55.164Z,487.2308
2023-04-29T04:54:56.760Z,485.7692
2023-04-29T04:55:58.448Z,484.9231
2023-04-29T04:57:00.038Z,481.3077
2023-04-29T04:58:01.833Z,479.6923
2023-04-29T04:59:03.347Z,482.8462
2023-04-29T05:00:05.027Z,486.6923
2023-04-29T05:01:06.714Z,486.8462
2023-04-29T05:02:09.265Z,486.3846
2023-04-29T05:03:10.346Z,489.0769
2023-04-29T05:04:11.769Z,489.0000
2023-04-29T05:05:13.265Z,489.8462
2023-04-29T05:06:14.926Z,489.4615
2023-04-29T05:07:16.575Z,487.3846
2023-04-29T05:08:18.737Z,486.6154
2023-04-29T05:09:19.782Z,482.5385
2023-04-29T05:10:21.530Z,481.6923
2023-04-29T05:11:23.086Z,483.4615
2023-04-29T05:12:24.755Z,483.0000
2023-04-29T05:13:27.205Z,480.9231
2023-04-29T05:14:28.056Z,481.8462
2023-04-29T05:15:29.666Z,479.9231
2023-04-29T05:16:32.278Z,476.9231
2023-04-29T05:17:32.988Z,472.3846
2023-04-29T05:18:34.656Z,465.0000
2023-04-29T05:19:36.284Z,460.0769
2023-04-29T05:20:38.007Z,456.7692
2023-04-29T05:21:39.604Z,451.8462
2023-04-29T05:22:41.237Z,449.9231
2023-04-29T05:23:43.291Z,448.1538
2023-04-29T05:24:44.548Z,448.5385
2023-04-29T05:25:46.129Z,445.3846
2023-04-29T05:26:47.746Z,444.0000
2023-04-29T05:27:49.359Z,447.2308
2023-04-29T05:28:51.071Z,450.7692
2023-04-29T05:29:52.918Z,451.3846
2023-04-29T05:30:54.400Z,450.0769
2023-04-29T05:31:55.922Z,449.0000
2023-04-29T05:32:57.741Z,454.3846
2023-04-29T05:33:59.695Z,452.6154
2023-04-29T05:35:00.953Z,450.5385
2023-04-29T05:36:02.526Z,450.0000
2023-04-29T05:37:04.216Z,451.2308
2023-04-29T05:38:06.665Z,451.8462
2023-04-29T05:39:07.547Z,450.8462
2023-04-29T05:40:09.080Z,451.6154
2023-04-29T05:41:10.762Z,452.6154
2023-04-29T05:42:12.459Z,454.1538
2023-04-29T05:43:14.076Z,450.8462
2023-04-29T05:44:16.193Z,449.8462
2023-04-29T05:45:17.366Z,453.0000
2023-04-29T05:46:19.017Z,453.8462
2023-04-29T05:47:20.679Z,451.0000
2023-04-29T05:48:23.153Z,455.4615
2023-04-29T05:49:24.025Z,457.6154
2023-04-29T05:50:25.665Z,455.3846
2023-04-29T05:51:27.302Z,452.9231
2023-04-29T05:52:28.856Z,448.6923
2023-04-29T05:53:30.529Z,447.8462
2023-04-29T05:54:32.141Z,446.9231
2023-04-29T05:55:34.274Z,442.0000
2023-04-29T05:56:35.439Z,440.3077
2023-04-29T05:57:37.104Z,442.4615
2023-04-29T05:58:38.724Z,443.0000
2023-04-29T05:59:40.426Z,441.7692
2023-04-29T06:00:42.106Z,440.5385
2023-04-29T06:01:43.689Z,438.0000
2023-04-29T06:02:57.278Z,437.4615
2023-04-29T06:03:47.149Z,445.0769
2023-04-29T06:04:48.852Z,445.9231
2023-04-29T06:05:50.501Z,443.4615
2023-04-29T06:06:51.931Z,442.1538
2023-04-29T06:07:53.590Z,442.4615
2023-04-29T06:08:55.216Z,441.9231
2023-04-29T06:09:56.994Z,442.6154
2023-04-29T06:10:58.557Z,441.5385
2023-04-29T06:12:00.219Z,441.3077
2023-04-29T06:13:01.753Z,444.9231
2023-04-29T06:14:03.523Z,444.3077
2023-04-29T06:15:05.204Z,444.2308
2023-04-29T06:16:06.949Z,446.5385
2023-04-29T06:17:08.464Z,444.9231
2023-04-29T06:18:10.188Z,446.2308
2023-04-29T06:19:12.503Z,446.9231
2023-04-29T06:20:13.934Z,444.5385
2023-04-29T06:21:15.160Z,444.3846
2023-04-29T06:22:16.741Z,442.3846
2023-04-29T06:23:18.417Z,444.5385
2023-04-29T06:24:19.973Z,443.4615
2023-04-29T06:25:21.744Z,440.9231
2023-04-29T06:26:23.408Z,440.6923
2023-04-29T06:27:25.013Z,445.2308
2023-04-29T06:28:26.607Z,442.3077
2023-04-29T06:29:28.316Z,438.6154
2023-04-29T06:30:29.924Z,439.3077
2023-04-29T06:31:32.847Z,443.0769
2023-04-29T06:32:33.163Z,441.3846
2023-04-29T06:33:34.941Z,440.7692
2023-04-29T06:34:36.453Z,437.9231
2023-04-29T06:35:38.189Z,435.1538
2023-04-29T06:36:39.876Z,432.8462
2023-04-29T06:37:41.495Z,431.5385
2023-04-29T06:38:43.150Z,431.3846
2023-04-29T06:39:44.820Z,432.0000
2023-04-29T06:40:46.396Z,432.5385
2023-04-29T06:41:48.975Z,429.3846
2023-04-29T06:42:49.725Z,424.7692
2023-04-29T06:43:51.476Z,424.4615
2023-04-29T06:44:52.962Z,425.0769
2023-04-29T06:45:54.674Z,427.3077
2023-04-29T06:46:56.349Z,424.9231
2023-04-29T06:47:58.076Z,422.3846
2023-04-29T06:48:59.567Z,423.4615
2023-04-29T06:50:01.248Z,424.8462
2023-04-29T06:51:02.915Z,426.0769
2023-04-29T06:52:04.545Z,427.0769
2023-04-29T06:53:06.195Z,427.3077
2023-04-29T06:54:08.160Z,425.2308
2023-04-29T06:55:10.475Z,425.0000
2023-04-29T06:56:11.990Z,424.2308
2023-04-29T06:57:12.757Z,423.2308
2023-04-29T06:58:14.397Z,425.7692
2023-04-29T06:59:16.039Z,418.9231
2023-04-29T07:00:17.684Z,423.3846
2023-04-29T07:01:19.456Z,422.8462
2023-04-29T07:02:21.000Z,423.3077
2023-04-29T07:03:23.110Z,420.3846
2023-04-29T07:04:24.285Z,424.6923
2023-04-29T07:05:25.982Z,426.4615
2023-04-29T07:06:27.516Z,423.2308
2023-04-29T07:07:29.252Z,422.3846
2023-04-29T07:08:30.876Z,422.7692
2023-04-29T07:09:32.524Z,422.8462
2023-04-29T07:10:34.169Z,419.0769
2023-04-29T07:11:35.819Z,420.3846
2023-04-29T07:12:37.592Z,421.4615
2023-04-29T07:13:39.167Z,418.0769
2023-04-29T07:14:40.751Z,415.2308
2023-04-29T07:15:43.449Z,417.0000
2023-04-29T07:16:44.017Z,418.5385
2023-04-29T07:17:45.690Z,420.3846
2023-04-29T07:18:47.289Z,421.3846
2023-04-29T07:19:48.985Z,420.2308
2023-04-29T07:20:50.594Z,421.4615
2023-04-29T07:21:52.244Z,422.5385
2023-04-29T07:22:53.926Z,422.9231
2023-04-29T07:23:55.613Z,422.6923
2023-04-29T07:24:57.238Z,420.6154
2023-04-29T07:25:58.801Z,419.7692
2023-04-29T07:27:00.487Z,420.6923
2023-04-29T07:28:02.146Z,421.2308
2023-04-29T07:29:03.834Z,422.1538
2023-04-29T07:30:05.470Z,423.3077
2023-04-29T07:31:07.100Z,422.0000
2023-04-29T07:32:09.273Z,422.5385
2023-04-29T07:33:10.382Z,425.7692
2023-04-29T07:34:12.088Z,425.2308
2023-04-29T07:35:13.745Z,426.1538
2023-04-29T07:36:15.294Z,426.0769
2023-04-29T07:37:17.006Z,427.2308
2023-04-29T07:38:18.597Z,424.3846
2023-04-29T07:39:20.350Z,424.7692
2023-04-29T07:40:21.934Z,422.9231
2023-04-29T07:41:23.600Z,424.0000
2023-04-29T07:42:25.213Z,424.9231
2023-04-29T07:43:26.888Z,425.2308
2023-04-29T07:44:28.532Z,426.6154
2023-04-29T07:45:30.207Z,430.4615
2023-04-29T07:46:31.828Z,429.3077
2023-04-29T07:47:34.345Z,426.6154
2023-04-29T07:48:35.085Z,425.8462
2023-04-29T07:49:36.778Z,426.6154
2023-04-29T07:50:38.409Z,423.0769
2023-04-29T07:51:40.038Z,426.6923
2023-04-29T07:52:41.677Z,428.0000
2023-04-29T07:53:43.367Z,429.0000
2023-04-29T07:54:45.076Z,429.4615
2023-04-29T07:55:46.675Z,429.8462
2023-04-29T07:56:48.284Z,428.4615
2023-04-29T07:57:49.940Z,424.5385
2023-04-29T07:58:51.643Z,428.9231
2023-04-29T07:59:53.316Z,430.6154
2023-04-29T08:00:54.934Z,431.3077
2023-04-29T08:01:56.569Z,429.6923
2023-04-29T08:02:58.255Z,426.7692
2023-04-29T08:04:00.084Z,420.3846
2023-04-29T08:05:02.083Z,421.3846
2023-04-29T08:06:03.231Z,421.0769
2023-04-29T08:07:04.762Z,424.1538
2023-04-29T08:08:06.430Z,423.6154
2023-04-29T08:09:08.028Z,418.2308
2023-04-29T08:10:09.778Z,421.3846
2023-04-29T08:11:11.390Z,419.7692
2023-04-29T08:12:13.053Z,419.8462
2023-04-29T08:13:14.655Z,422.6923
2023-04-29T08:14:16.318Z,425.0769
2023-04-29T08:15:17.958Z,426.5385
2023-04-29T08:16:19.805Z,427.2308
2023-04-29T08:17:21.376Z,422.6154
2023-04-29T08:18:23.051Z,420.3846
2023-04-29T08:19:24.587Z,420.7692
2023-04-29T08:20:26.311Z,421.4615
2023-04-29T08:21:27.933Z,420.5385
2023-04-29T08:22:29.560Z,416.7692
2023-04-29T08:23:31.147Z,413.9231
2023-04-29T08:24:32.868Z,414.3846
2023-04-29T08:25:34.490Z,417.6154
2023-04-29T08:26:36.185Z,420.7692
2023-04-29T08:27:37.769Z,421.2308
2023-04-29T08:28:39.727Z,421.0769
2023-04-29T08:29:41.025Z,420.6154
2023-04-29T08:30:42.941Z,418.0769
2023-04-29T08:31:44.483Z,417.0769
2023-04-29T08:32:46.106Z,419.2308
2023-04-29T08:33:47.655Z,419.4615
2023-04-29T08:34:49.375Z,418.6154
2023-04-29T08:35:50.998Z,416.2308
2023-04-29T08:36:52.724Z,415.5385
2023-04-29T08:37:54.273Z,420.7692
2023-04-29T08:38:55.993Z,420.3846
2023-04-29T08:39:57.649Z,425.4615
2023-04-29T08:40:59.448Z,426.2308
2023-04-29T08:42:00.945Z,425.7692
2023-04-29T08:43:02.579Z,423.5385
2023-04-29T08:44:04.167Z,423.4615
2023-04-29T08:45:06.353Z,424.4615
2023-04-29T08:46:07.548Z,426.0000
2023-04-29T08:47:09.191Z,427.9231
2023-04-29T08:48:10.891Z,423.9231
2023-04-29T08:49:12.441Z,415.9231
2023-04-29T08:50:14.035Z,416.1538
2023-04-29T08:51:16.045Z,413.7692
2023-04-29T08:52:17.389Z,413.1538
2023-04-29T08:53:19.017Z,418.8462
2023-04-29T08:54:20.619Z,419.0000
2023-04-29T08:55:22.376Z,419.6154
2023-04-29T08:56:24.590Z,420.2308
2023-04-29T08:57:25.700Z,416.9231
2023-04-29T08:58:27.258Z,419.5385
2023-04-29T08:59:28.851Z,419.5385
2023-04-29T09:00:30.490Z,417.2308
2023-04-29T09:01:32.214Z,420.6154
2023-04-29T09:02:33.794Z,419.6154
2023-04-29T09:03:35.598Z,412.7692
2023-04-29T09:04:37.205Z,413.6154
2023-04-29T09:05:38.773Z,421.0769
2023-04-29T09:06:40.426Z,419.2308
2023-04-29T09:07:42.042Z,419.7692
2023-04-29T09:08:43.683Z,417.4615
2023-04-29T09:09:45.363Z,418.0769
2023-04-29T09:10:46.934Z,418.6154
2023-04-29T09:11:48.704Z,418.5385
2023-04-29T09:12:50.289Z,419.0000
2023-04-29T09:13:51.945Z,418.3077
2023-04-29T09:14:53.875Z,419.2308
2023-04-29T09:15:55.193Z,420.2308
2023-04-29T09:16:56.975Z,418.2308
2023-04-29T09:17:58.552Z,418.8462
2023-04-29T09:19:00.199Z,421.1538
2023-04-29T09:20:01.784Z,417.6923
2023-04-29T09:21:03.475Z,415.8462
2023-04-29T09:22:05.163Z,420.3077
2023-04-29T09:23:06.765Z,416.8462
2023-04-29T09:24:08.427Z,415.8462
2023-04-29T09:25:10.062Z,416.3077
2023-04-29T09:26:11.726Z,416.6923
2023-04-29T09:27:13.390Z,415.5385
2023-04-29T09:28:15.012Z,413.1538
2023-04-29T09:29:16.623Z,413.6923
2023-04-29T09:30:18.333Z,413.8462
2023-04-29T09:31:19.999Z,415.6923
2023-04-29T09:32:21.787Z,414.7692
2023-04-29T09:33:23.836Z,416.1538
2023-04-29T09:34:24.939Z,414.3077
2023-04-29T09:35:26.507Z,413.9231
2023-04-29T09:36:28.240Z,415.4615
2023-04-29T09:37:29.941Z,417.2308
2023-04-29T09:38:31.525Z,415.4615
2023-04-29T09:39:33.159Z,418.4615
2023-04-29T09:40:43.407Z,415.2308
2023-04-29T09:41:36.458Z,413.1538
2023-04-29T09:42:38.370Z,413.5385
2023-04-29T09:43:39.759Z,411.3846
2023-04-29T09:44:41.350Z,410.8462
2023-04-29T09:45:43.100Z,413.6923
2023-04-29T09:46:44.675Z,414.0769
2023-04-29T09:47:46.430Z,415.3077
2023-04-29T09:48:48.001Z,419.6154
2023-04-29T09:49:49.696Z,418.7692
2023-04-29T09:50:51.253Z,419.6154
2023-04-29T09:51:52.970Z,416.7692
2023-04-29T09:52:54.629Z,416.6154
2023-04-29T09:53:56.308Z,414.3846
2023-04-29T09:54:57.838Z,415.1538
2023-04-29T09:55:59.569Z,415.3077
2023-04-29T09:57:01.215Z,418.3077
2023-04-29T09:58:03.029Z,415.2308
2023-04-29T09:59:04.486Z,413.9231
2023-04-29T10:00:06.161Z,414.3077
2023-04-29T10:01:07.845Z,414.6923
2023-04-29T10:02:09.497Z,415.3846
2023-04-29T10:03:11.206Z,415.3077
2023-04-29T10:04:12.842Z,414.0769
2023-04-29T10:05:14.447Z,413.0000
2023-04-29T10:06:16.032Z,408.8462
2023-04-29T10:07:17.885Z,411.5385
2023-04-29T10:08:19.359Z,410.5385
2023-04-29T10:09:21.034Z,409.3846
2023-04-29T10:10:22.661Z,410.0769
2023-04-29T10:11:24.329Z,410.8462
2023-04-29T10:12:25.909Z,416.0769
2023-04-29T10:13:27.677Z,417.0769
2023-04-29T10:14:29.227Z,418.3846
2023-04-29T10:15:30.936Z,421.1538
2023-04-29T10:16:32.595Z,417.6154
2023-04-29T10:17:34.193Z,417.0769
2023-04-29T10:18:35.958Z,415.8462
2023-04-29T10:19:37.478Z,415.0769
2023-04-29T10:20:39.154Z,415.8462
2023-04-29T10:21:40.776Z,416.0000
2023-04-29T10:22:42.472Z,415.5385
2023-04-29T10:23:44.146Z,416.3077
2023-04-29T10:24:45.844Z,416.0769
2023-04-29T10:25:47.360Z,414.5385
2023-04-29T10:26:49.077Z,413.8462
2023-04-29T10:27:50.680Z,415.3077
2023-04-29T10:28:52.448Z,413.5385
2023-04-29T10:29:54.008Z,414.0769
2023-04-29T10:30:55.710Z,412.2308
2023-04-29T10:31:57.242Z,412.6154
2023-04-29T10:33:01.054Z,413.3846
2023-04-29T10:34:00.573Z,413.7692
2023-04-29T10:35:04.848Z,414.4615
2023-04-29T10:36:03.878Z,416.4615
2023-04-29T10:37:05.509Z,419.1538
2023-04-29T10:38:07.155Z,412.5385
2023-04-29T10:39:08.844Z,408.9231
2023-04-29T10:40:10.412Z,410.2308
2023-04-29T10:41:12.158Z,405.6923
2023-04-29T10:42:13.774Z,405.3077
2023-04-29T10:43:15.410Z,408.0000
2023-04-29T10:44:17.080Z,408.9231
2023-04-29T10:45:18.764Z,411.0769
2023-04-29T10:46:20.397Z,415.5385
2023-04-29T10:47:22.020Z,411.0000
2023-04-29T10:48:23.691Z,411.9231
2023-04-29T10:49:25.896Z,414.0769
2023-04-29T10:50:27.382Z,412.9231
2023-04-29T10:51:28.598Z,411.5385
2023-04-29T10:52:30.330Z,412.7692
2023-04-29T10:53:31.928Z,411.1538
2023-04-29T10:54:34.187Z,410.5385
2023-04-29T10:55:35.244Z,408.6154
2023-04-29T10:56:36.895Z,410.3077
2023-04-29T10:57:38.558Z,415.3077
2023-04-29T10:58:40.189Z,413.1538
2023-04-29T10:59:41.898Z,409.9231
2023-04-29T11:00:43.496Z,412.1538
2023-04-29T11:01:45.168Z,411.6923
2023-04-29T11:02:46.789Z,413.5385
2023-04-29T11:03:48.751Z,408.3846
2023-04-29T11:04:50.224Z,407.4615
2023-04-29T11:05:51.799Z,410.0000
2023-04-29T11:06:53.366Z,408.9231
2023-04-29T11:07:55.033Z,408.8462
2023-04-29T11:08:56.668Z,411.6923
2023-04-29T11:09:58.374Z,412.0769
2023-04-29T11:11:00.032Z,408.0769
2023-04-29T11:12:02.472Z,409.6154
2023-04-29T11:13:03.283Z,410.0769
2023-04-29T11:14:04.967Z,410.4615
2023-04-29T11:15:06.607Z,414.3077
2023-04-29T11:16:08.367Z,417.1538
2023-04-29T11:17:09.970Z,412.3077
2023-04-29T11:18:11.698Z,408.4615
2023-04-29T11:19:13.245Z,408.3846
2023-04-29T11:20:14.808Z,408.0769
2023-04-29T11:21:16.539Z,402.5385
2023-04-29T11:22:18.351Z,406.0000
2023-04-29T11:23:19.821Z,407.3846
2023-04-29T11:24:21.474Z,408.8462
2023-04-29T11:25:23.111Z,407.9231
2023-04-29T11:26:24.778Z,405.7692
2023-04-29T11:27:26.489Z,404.9231
2023-04-29T11:28:28.029Z,408.3846
2023-04-29T11:29:29.800Z,406.8462
2023-04-29T11:30:31.330Z,404.8462
2023-04-29T11:31:33.106Z,406.5385
2023-04-29T11:32:34.776Z,405.4615
2023-04-29T11:33:36.354Z,408.0000
2023-04-29T11:34:38.015Z,409.2308
2023-04-29T11:35:40.218Z,410.2308
2023-04-29T11:36:41.280Z,409.9231
2023-04-29T11:37:43.036Z,408.4615
2023-04-29T11:38:44.564Z,405.4615
2023-04-29T11:39:46.399Z,408.6923
2023-04-29T11:40:47.834Z,407.6154
2023-04-29T11:41:51.175Z,405.7692
2023-04-29T11:42:51.165Z,408.7692
2023-04-29T11:43:52.862Z,411.4615
2023-04-29T11:44:54.758Z,408.7692
2023-04-29T11:45:56.207Z,406.4615
2023-04-29T11:46:57.780Z,405.4615
2023-04-29T11:47:59.497Z,411.6154
2023-04-29T11:49:01.054Z,414.8462
2023-04-29T11:50:02.787Z,411.3846
2023-04-29T11:51:04.377Z,410.8462
2023-04-29T11:52:06.053Z,412.9231
2023-04-29T11:53:07.705Z,411.0769
2023-04-29T11:54:09.338Z,410.6154
2023-04-29T11:55:11.042Z,409.7692
2023-04-29T11:56:12.609Z,409.6154
2023-04-29T11:57:14.310Z,408.8462
2023-04-29T11:58:15.918Z,409.5385
2023-04-29T11:59:17.590Z,415.3077
2023-04-29T12:00:19.243Z,409.6923
2023-04-29T12:01:20.905Z,407.4615
2023-04-29T12:02:23.784Z,408.4615
2023-04-29T12:03:24.514Z,409.8462